This is the latest recevied weather packets stored in our database for station/object WB6TTB. If no packets are shown the sender has not sent any weather packets the latest 1 day(s).
| Time | Temp. | Humidity | Pressure | Rain* | Wind** | Luminosity | Snow |
|---|---|---|---|---|---|---|---|
| 1836274497 | 16.11° C | 93% | 1013.6 hPa | 0 mm | 2.24 m/s, 280° | - | - |
| 1836274467 | 16.11° C | 94% | 1013.7 hPa | 0 mm | 3.13 m/s, 280° | - | - |
| 1836274137 | 16.11° C | 93% | 1013.5 hPa | 0 mm | 2.68 m/s, 279° | - | - |
| 1836274107 | 16.11° C | 94% | 1013.7 hPa | 0 mm | 2.68 m/s, 279° | - | - |
| 1778048283 | 11.11° C | 92% | 1017.3 hPa | 0 mm | 0 m/s | - | - |
| 1778046843 | 11.11° C | 93% | 1017.2 hPa | 0 mm | 0 m/s | - | - |
| 1778045404 | 11.11° C | 94% | 1017.2 hPa | 0 mm | 0 m/s | - | - |
| 1778045044 | 11.67° C | 94% | 1017.1 hPa | 0 mm | 0 m/s | - | - |
| 1778042523 | 11.67° C | 93% | 1016.7 hPa | 0 mm | 0 m/s | - | - |
| 1778040003 | 11.67° C | 92% | 1016.2 hPa | 0 mm | 0 m/s | - | - |
| 1778037124 | 12.22° C | 92% | 1015.5 hPa | 0 mm | 0 m/s | - | - |
| 1778036044 | 12.78° C | 91% | 1015.3 hPa | 0 mm | 0 m/s | - | - |
| 1778032443 | 13.89° C | 89% | 1014.9 hPa | 0 mm | 0 m/s | - | - |
| 1778029923 | 14.44° C | 86% | 1014.9 hPa | 0 mm | 0 m/s | - | - |
| 1778024523 | 13.89° C | 87% | 1014.6 hPa | 0 mm | 0 m/s | - | - |
| 1778012283 | 13.89° C | 89% | 1015.1 hPa | 0 mm | 0 m/s | - | - |
| 1778007604 | 14.44° C | 88% | 1015.1 hPa | 0 mm | 0 m/s | - | - |
| 1778004003 | 13.89° C | 91% | 1015 hPa | 0 mm | 0 m/s | - | - |
| 1778001844 | 13.33° C | 95% | 1014.7 hPa | 0 mm | 0 m/s | - | - |
| 1777991403 | 11.11° C | 97% | 1014 hPa | 0 mm | 0 m/s | - | - |
| 1777988883 | 11.11° C | 96% | 1013.7 hPa | 0 mm | 0 m/s | - | - |
| 1777985284 | 10.56° C | 96% | 1013.4 hPa | 0 mm | 0 m/s | - | - |
| 1777984563 | 10.56° C | 96% | 1013.5 hPa | 0 mm | 0 m/s | - | - |
| 1777980603 | 10° C | 96% | 1013.5 hPa | 0 mm | 0 m/s | - | - |
| 1777979163 | 10° C | 96% | 1013.5 hPa | 0 mm | 0 m/s | - | - |
* Rain latest hour (hover to see other rain measurements)
** Current wind speed in m/s (hover to see current wind gust speed)